Portland International Airport
KPDX : now visible

Airfield :











YOU CAN JOIN US ON...

 
LOGIN :

Register | Disclaimer

   EN    FR    IT 

 









Legend :    VFR   Marginal VFR   IFR   Intensive IFR   Very Intensive IFR
Visi :
Ceiling :
>= 8 km
>= 3000ft
5 to 8 km
1000 to 3000 ft
1500m to 5 km
500 to 1000 ft
800 to 1500m
200 to 500 ft
< 800m
< 200 ft
Symbols :   Thunderstorms  Fog  Heavy snow  Heavy precipitations  Wind > 20 kt






- Airport Elevation : 31 ft
- IATA code : PDX


KPDX - Portland International

CURRENT METAR :
  • 041853Z 21003KT 10SM FEW020 24/15 A3006 RMK AO2 SLP177 T02390150

EXPIRED METARs :
  • 041753Z 31004KT 10SM FEW018 22/15 A3007 RMK AO2 SLP182 T02220150 10222 20167 58005
  • 041653Z 29005KT 10SM FEW014 20/15 A3009 RMK AO2 SLP187 T02000150

TAF KPDX
Valid from the 04 at 18:00 until the 05 at 18:00 UTC


041733Z 0418/0518 30005KT P6SM SKC
FM050000 33009KT P6SM SKC
FM050700 VRB03KT P6SM SKC
FM051400 32003KT P6SM SCT012
KZSE FIR / North America



MET'MAP, your aeronautical weather chart ! - Copyright ORBIFLY December 2007 - Disclaimer

ORBIFLY MET'MAP TEAM :

Programming & Development : Alexandra Zaïnal
Concept & original design : Baudouin d'Aumeries
Assistance for programming : Marc-Olivier Méhu
Technical & hardware support : Manuel Goepfert

Contact : metmap@orbifly.com




SOURCES & CREDITS :

   NOAA       Earth
Advisory